sensor_id;sensor_type;location;lat;lon;timestamp;pressure;altitude;pressure_sealevel;temperature;humidity
19112;BME280;9688;51.906;8.376;2023-07-29T00:02:24;99914.53;;;20.77;100.00
19112;BME280;9688;51.906;8.376;2023-07-29T00:05:12;99915.38;;;20.77;100.00
19112;BME280;9688;51.906;8.376;2023-07-29T00:07:57;99904.91;;;20.74;100.00
19112;BME280;9688;51.906;8.376;2023-07-29T00:10:44;99898.84;;;20.72;100.00
19112;BME280;9688;51.906;8.376;2023-07-29T00:13:31;99905.22;;;20.71;100.00
19112;BME280;9688;51.906;8.376;2023-07-29T00:16:16;99903.66;;;20.68;100.00
19112;BME280;9688;51.906;8.376;2023-07-29T00:19:06;99902.81;;;20.68;100.00
19112;BME280;9688;51.906;8.376;2023-07-29T00:21:51;99899.28;;;20.67;100.00
19112;BME280;9688;51.906;8.376;2023-07-29T00:24:37;99898.41;;;20.67;100.00
19112;BME280;9688;51.906;8.376;2023-07-29T00:27:23;99895.59;;;20.68;100.00
19112;BME280;9688;51.906;8.376;2023-07-29T00:30:11;99892.91;;;20.68;100.00
19112;BME280;9688;51.906;8.376;2023-07-29T00:32:57;99890.06;;;20.70;100.00
19112;BME280;9688;51.906;8.376;2023-07-29T00:35:43;99895.31;;;20.71;100.00
19112;BME280;9688;51.906;8.376;2023-07-29T00:38:28;99900.38;;;20.75;100.00
19112;BME280;9688;51.906;8.376;2023-07-29T00:41:14;99894.72;;;20.78;100.00
19112;BME280;9688;51.906;8.376;2023-07-29T00:44:00;99892.03;;;20.78;100.00
19112;BME280;9688;51.906;8.376;2023-07-29T00:46:49;99890.19;;;20.78;100.00
19112;BME280;9688;51.906;8.376;2023-07-29T00:49:35;99895.44;;;20.80;100.00
19112;BME280;9688;51.906;8.376;2023-07-29T00:52:22;99894.31;;;20.82;100.00
19112;BME280;9688;51.906;8.376;2023-07-29T00:55:08;99892.34;;;20.84;100.00
19112;BME280;9688;51.906;8.376;2023-07-29T00:57:54;99882.28;;;20.86;100.00
19112;BME280;9688;51.906;8.376;2023-07-29T01:00:40;99885.97;;;20.85;100.00
19112;BME280;9688;51.906;8.376;2023-07-29T01:03:27;99874.22;;;20.86;100.00
19112;BME280;9688;51.906;8.376;2023-07-29T01:06:20;99869.72;;;20.87;100.00
19112;BME280;9688;51.906;8.376;2023-07-29T01:09:16;99869.41;;;20.90;100.00
19112;BME280;9688;51.906;8.376;2023-07-29T01:12:10;99881.97;;;20.89;100.00
19112;BME280;9688;51.906;8.376;2023-07-29T01:15:01;99874.09;;;20.88;100.00
19112;BME280;9688;51.906;8.376;2023-07-29T01:17:54;99877.91;;;20.85;100.00
19112;BME280;9688;51.906;8.376;2023-07-29T01:20:43;99881.16;;;20.79;100.00
19112;BME280;9688;51.906;8.376;2023-07-29T01:23:34;99867.16;;;20.76;100.00
19112;BME280;9688;51.906;8.376;2023-07-29T01:26:20;99877.22;;;20.74;100.00
19112;BME280;9688;51.906;8.376;2023-07-29T01:29:06;99880.19;;;20.70;100.00
19112;BME280;9688;51.906;8.376;2023-07-29T01:31:54;99873.09;;;20.69;100.00
19112;BME280;9688;51.906;8.376;2023-07-29T01:34:47;99864.91;;;20.71;100.00
19112;BME280;9688;51.906;8.376;2023-07-29T01:37:34;99867.72;;;20.69;100.00
19112;BME280;9688;51.906;8.376;2023-07-29T01:40:22;99862.50;;;20.68;100.00
19112;BME280;9688;51.906;8.376;2023-07-29T01:43:08;99865.19;;;20.68;100.00
19112;BME280;9688;51.906;8.376;2023-07-29T01:45:55;99862.50;;;20.68;100.00
19112;BME280;9688;51.906;8.376;2023-07-29T01:48:41;99859.66;;;20.69;100.00
19112;BME280;9688;51.906;8.376;2023-07-29T01:51:27;99858.81;;;20.69;100.00
19112;BME280;9688;51.906;8.376;2023-07-29T01:54:14;99841.31;;;20.65;100.00
19112;BME280;9688;51.906;8.376;2023-07-29T01:57:01;99839.59;;;20.64;100.00
19112;BME280;9688;51.906;8.376;2023-07-29T01:59:46;99838.91;;;20.62;100.00
19112;BME280;9688;51.906;8.376;2023-07-29T02:02:32;99843.00;;;20.56;100.00
19112;BME280;9688;51.906;8.376;2023-07-29T02:05:18;99852.22;;;20.54;100.00
19112;BME280;9688;51.906;8.376;2023-07-29T02:08:05;99850.91;;;20.48;100.00
19112;BME280;9688;51.906;8.376;2023-07-29T02:10:51;99856.53;;;20.45;100.00
19112;BME280;9688;51.906;8.376;2023-07-29T02:13:38;99858.66;;;20.41;100.00
19112;BME280;9688;51.906;8.376;2023-07-29T02:16:24;99852.88;;;20.36;100.00
19112;BME280;9688;51.906;8.376;2023-07-29T02:19:10;99856.13;;;20.30;100.00
19112;BME280;9688;51.906;8.376;2023-07-29T02:21:56;99850.91;;;20.28;100.00
19112;BME280;9688;51.906;8.376;2023-07-29T02:24:42;99843.69;;;20.29;100.00
19112;BME280;9688;51.906;8.376;2023-07-29T02:27:28;99845.09;;;20.33;100.00
19112;BME280;9688;51.906;8.376;2023-07-29T02:30:16;99836.06;;;20.34;100.00
19112;BME280;9688;51.906;8.376;2023-07-29T02:33:02;99835.06;;;20.35;100.00
19112;BME280;9688;51.906;8.376;2023-07-29T02:35:48;99831.53;;;20.35;100.00
19112;BME280;9688;51.906;8.376;2023-07-29T02:38:34;99841.28;;;20.36;100.00
19112;BME280;9688;51.906;8.376;2023-07-29T02:41:20;99835.78;;;20.37;100.00
19112;BME280;9688;51.906;8.376;2023-07-29T02:44:06;99832.94;;;20.39;100.00
19112;BME280;9688;51.906;8.376;2023-07-29T02:46:53;99831.81;;;20.41;100.00
19112;BME280;9688;51.906;8.376;2023-07-29T02:49:40;99840.59;;;20.43;100.00
19112;BME280;9688;51.906;8.376;2023-07-29T02:52:26;99844.66;;;20.47;100.00
19112;BME280;9688;51.906;8.376;2023-07-29T02:55:12;99840.16;;;20.48;100.00
19112;BME280;9688;51.906;8.376;2023-07-29T02:57:58;99833.91;;;20.47;100.00
19112;BME280;9688;51.906;8.376;2023-07-29T03:00:43;99826.75;;;20.48;100.00
19112;BME280;9688;51.906;8.376;2023-07-29T03:03:31;99817.69;;;20.49;100.00
19112;BME280;9688;51.906;8.376;2023-07-29T03:06:17;99811.59;;;20.47;100.00
19112;BME280;9688;51.906;8.376;2023-07-29T03:09:03;99817.13;;;20.45;100.00
19112;BME280;9688;51.906;8.376;2023-07-29T03:11:49;99813.72;;;20.43;100.00
19112;BME280;9688;51.906;8.376;2023-07-29T03:14:36;99821.06;;;20.41;100.00
19112;BME280;9688;51.906;8.376;2023-07-29T03:17:22;99812.31;;;20.39;100.00
19112;BME280;9688;51.906;8.376;2023-07-29T03:20:09;99811.34;;;20.40;100.00
19112;BME280;9688;51.906;8.376;2023-07-29T03:22:56;99814.88;;;20.41;100.00
19112;BME280;9688;51.906;8.376;2023-07-29T03:25:42;99817.38;;;20.42;100.00
19112;BME280;9688;51.906;8.376;2023-07-29T03:28:31;99811.75;;;20.45;100.00
19112;BME280;9688;51.906;8.376;2023-07-29T03:31:17;99812.59;;;20.46;100.00
19112;BME280;9688;51.906;8.376;2023-07-29T03:34:03;99814.28;;;20.47;100.00
19112;BME280;9688;51.906;8.376;2023-07-29T03:36:50;99811.47;;;20.48;100.00
19112;BME280;9688;51.906;8.376;2023-07-29T03:39:36;99815.00;;;20.49;100.00
19112;BME280;9688;51.906;8.376;2023-07-29T03:42:21;99799.59;;;20.51;100.00
19112;BME280;9688;51.906;8.376;2023-07-29T03:45:08;99799.44;;;20.53;100.00
19112;BME280;9688;51.906;8.376;2023-07-29T03:47:54;99800.31;;;20.53;100.00
19112;BME280;9688;51.906;8.376;2023-07-29T03:50:40;99793.34;;;20.50;100.00
19112;BME280;9688;51.906;8.376;2023-07-29T03:53:27;99794.34;;;20.49;100.00
19112;BME280;9688;51.906;8.376;2023-07-29T03:56:13;99799.44;;;20.53;100.00
19112;BME280;9688;51.906;8.376;2023-07-29T03:59:02;99789.56;;;20.53;100.00
19112;BME280;9688;51.906;8.376;2023-07-29T04:01:48;99791.28;;;20.54;100.00
19112;BME280;9688;51.906;8.376;2023-07-29T04:04:34;99794.66;;;20.56;100.00
19112;BME280;9688;51.906;8.376;2023-07-29T04:07:19;99783.66;;;20.59;100.00
19112;BME280;9688;51.906;8.376;2023-07-29T04:10:08;99789.72;;;20.61;100.00
19112;BME280;9688;51.906;8.376;2023-07-29T04:12:54;99791.13;;;20.65;100.00
19112;BME280;9688;51.906;8.376;2023-07-29T04:15:39;99788.44;;;20.65;100.00
19112;BME280;9688;51.906;8.376;2023-07-29T04:18:25;99776.69;;;20.66;100.00
19112;BME280;9688;51.906;8.376;2023-07-29T04:21:11;99784.63;;;20.68;100.00
19112;BME280;9688;51.906;8.376;2023-07-29T04:23:57;99794.38;;;20.69;100.00
19112;BME280;9688;51.906;8.376;2023-07-29T04:26:45;99796.03;;;20.70;100.00
19112;BME280;9688;51.906;8.376;2023-07-29T04:29:30;99797.03;;;20.69;100.00
19112;BME280;9688;51.906;8.376;2023-07-29T04:32:16;99790.84;;;20.68;100.00
19112;BME280;9688;51.906;8.376;2023-07-29T04:35:03;99790.66;;;20.70;100.00
19112;BME280;9688;51.906;8.376;2023-07-29T04:37:49;99789.69;;;20.71;100.00
19112;BME280;9688;51.906;8.376;2023-07-29T04:40:34;99788.84;;;20.70;100.00
19112;BME280;9688;51.906;8.376;2023-07-29T04:43:22;99789.84;;;20.69;100.00
19112;BME280;9688;51.906;8.376;2023-07-29T04:46:08;99788.69;;;20.72;100.00
19112;BME280;9688;51.906;8.376;2023-07-29T04:48:54;99792.22;;;20.72;100.00
19112;BME280;9688;51.906;8.376;2023-07-29T04:51:39;99789.53;;;20.72;100.00
19112;BME280;9688;51.906;8.376;2023-07-29T04:54:25;99790.25;;;20.75;100.00
19112;BME280;9688;51.906;8.376;2023-07-29T04:57:11;99787.28;;;20.78;100.00
19112;BME280;9688;51.906;8.376;2023-07-29T04:59:58;99775.25;;;20.82;100.00
19112;BME280;9688;51.906;8.376;2023-07-29T05:02:44;99778.50;;;20.85;100.00
19112;BME280;9688;51.906;8.376;2023-07-29T05:05:30;99776.06;;;20.92;100.00
19112;BME280;9688;51.906;8.376;2023-07-29T05:08:16;99788.06;;;20.98;100.00
19112;BME280;9688;51.906;8.376;2023-07-29T05:11:02;99778.47;;;20.95;100.00
19112;BME280;9688;51.906;8.376;2023-07-29T05:13:48;99773.78;;;20.97;100.00
19112;BME280;9688;51.906;8.376;2023-07-29T05:16:35;99758.06;;;21.02;100.00
19112;BME280;9688;51.906;8.376;2023-07-29T05:19:20;99767.91;;;21.11;100.00
19112;BME280;9688;51.906;8.376;2023-07-29T05:22:06;99760.13;;;21.18;100.00
19112;BME280;9688;51.906;8.376;2023-07-29T05:24:52;99770.41;;;21.23;100.00
19112;BME280;9688;51.906;8.376;2023-07-29T05:27:38;99768.44;;;21.25;100.00
19112;BME280;9688;51.906;8.376;2023-07-29T05:30:24;99766.59;;;21.25;100.00
19112;BME280;9688;51.906;8.376;2023-07-29T05:33:12;99771.28;;;21.23;100.00
19112;BME280;9688;51.906;8.376;2023-07-29T05:35:57;99770.28;;;21.24;100.00
19112;BME280;9688;51.906;8.376;2023-07-29T05:38:43;99760.91;;;21.28;100.00
19112;BME280;9688;51.906;8.376;2023-07-29T05:41:29;99754.13;;;21.34;100.00
19112;BME280;9688;51.906;8.376;2023-07-29T05:44:15;99749.59;;;21.34;100.00
19112;BME280;9688;51.906;8.376;2023-07-29T05:47:01;99764.72;;;21.35;100.00
19112;BME280;9688;51.906;8.376;2023-07-29T05:49:48;99761.31;;;21.33;100.00
19112;BME280;9688;51.906;8.376;2023-07-29T05:52:34;99770.53;;;21.31;100.00
19112;BME280;9688;51.906;8.376;2023-07-29T05:55:19;99769.13;;;21.27;100.00
19112;BME280;9688;51.906;8.376;2023-07-29T05:58:05;99762.22;;;21.24;100.00
19112;BME280;9688;51.906;8.376;2023-07-29T06:00:51;99778.34;;;21.24;100.00
19112;BME280;9688;51.906;8.376;2023-07-29T06:03:37;99773.09;;;21.23;100.00
19112;BME280;9688;51.906;8.376;2023-07-29T06:06:24;99780.50;;;21.21;100.00
19112;BME280;9688;51.906;8.376;2023-07-29T06:09:10;99789.53;;;21.20;100.00
19112;BME280;9688;51.906;8.376;2023-07-29T06:11:55;99789.53;;;21.20;100.00
19112;BME280;9688;51.906;8.376;2023-07-29T06:14:41;99792.09;;;21.21;100.00
19112;BME280;9688;51.906;8.376;2023-07-29T06:17:27;99788.41;;;21.22;100.00
19112;BME280;9688;51.906;8.376;2023-07-29T06:20:13;99795.31;;;21.25;100.00
19112;BME280;9688;51.906;8.376;2023-07-29T06:23:00;99793.63;;;21.24;100.00
19112;BME280;9688;51.906;8.376;2023-07-29T06:25:46;99784.03;;;21.21;100.00
19112;BME280;9688;51.906;8.376;2023-07-29T06:28:32;99773.69;;;21.26;100.00
19112;BME280;9688;51.906;8.376;2023-07-29T06:31:18;99777.44;;;21.33;100.00
19112;BME280;9688;51.906;8.376;2023-07-29T06:34:04;99758.75;;;21.42;100.00
19112;BME280;9688;51.906;8.376;2023-07-29T06:36:49;99755.03;;;21.52;100.00
19112;BME280;9688;51.906;8.376;2023-07-29T06:39:37;99763.50;;;21.57;100.00
19112;BME280;9688;51.906;8.376;2023-07-29T06:42:23;99781.47;;;21.57;100.00
19112;BME280;9688;51.906;8.376;2023-07-29T06:45:09;99789.25;;;21.60;100.00
19112;BME280;9688;51.906;8.376;2023-07-29T06:47:55;99786.38;;;21.61;100.00
19112;BME280;9688;51.906;8.376;2023-07-29T06:50:42;99804.38;;;21.61;100.00
19112;BME280;9688;51.906;8.376;2023-07-29T06:53:28;99798.75;;;21.54;100.00
19112;BME280;9688;51.906;8.376;2023-07-29T06:56:15;99804.75;;;21.48;100.00
19112;BME280;9688;51.906;8.376;2023-07-29T06:59:01;99813.94;;;21.46;100.00
19112;BME280;9688;51.906;8.376;2023-07-29T07:01:47;99816.78;;;21.44;100.00
19112;BME280;9688;51.906;8.376;2023-07-29T07:04:32;99823.88;;;21.45;100.00
19112;BME280;9688;51.906;8.376;2023-07-29T07:07:18;99831.94;;;21.45;100.00
19112;BME280;9688;51.906;8.376;2023-07-29T07:10:05;99831.94;;;21.45;100.00
19112;BME280;9688;51.906;8.376;2023-07-29T07:12:52;99830.09;;;21.46;100.00
19112;BME280;9688;51.906;8.376;2023-07-29T07:15:37;99834.88;;;21.52;100.00
19112;BME280;9688;51.906;8.376;2023-07-29T07:18:23;99826.34;;;21.56;100.00
19112;BME280;9688;51.906;8.376;2023-07-29T07:21:09;99830.28;;;21.62;100.00
19112;BME280;9688;51.906;8.376;2023-07-29T07:23:55;99833.22;;;21.69;100.00
19112;BME280;9688;51.906;8.376;2023-07-29T07:26:40;99839.00;;;21.74;100.00
19112;BME280;9688;51.906;8.376;2023-07-29T07:29:29;99831.88;;;21.82;100.00
19112;BME280;9688;51.906;8.376;2023-07-29T07:32:15;99840.97;;;21.99;100.00
19112;BME280;9688;51.906;8.376;2023-07-29T07:35:01;99844.66;;;22.16;100.00
19112;BME280;9688;51.906;8.376;2023-07-29T07:37:47;99844.34;;;22.29;100.00
19112;BME280;9688;51.906;8.376;2023-07-29T07:40:33;99845.41;;;22.36;100.00
19112;BME280;9688;51.906;8.376;2023-07-29T07:43:19;99851.09;;;22.51;100.00
19112;BME280;9688;51.906;8.376;2023-07-29T07:46:07;99844.63;;;22.62;100.00
19112;BME280;9688;51.906;8.376;2023-07-29T07:48:52;99852.72;;;22.62;98.97
19112;BME280;9688;51.906;8.376;2023-07-29T07:51:38;99841.78;;;22.63;97.91
19112;BME280;9688;51.906;8.376;2023-07-29T07:54:24;99841.63;;;22.65;97.00
19112;BME280;9688;51.906;8.376;2023-07-29T07:57:10;99836.56;;;22.62;95.57
19112;BME280;9688;51.906;8.376;2023-07-29T07:59:56;99846.09;;;22.56;95.12
19112;BME280;9688;51.906;8.376;2023-07-29T08:02:43;99846.56;;;22.52;94.12
19112;BME280;9688;51.906;8.376;2023-07-29T08:05:30;99854.56;;;22.43;94.03
19112;BME280;9688;51.906;8.376;2023-07-29T08:08:17;99853.13;;;22.31;93.87
19112;BME280;9688;51.906;8.376;2023-07-29T08:11:05;99848.88;;;22.29;93.53
19112;BME280;9688;51.906;8.376;2023-07-29T08:13:51;99844.41;;;22.37;93.04
19112;BME280;9688;51.906;8.376;2023-07-29T08:16:37;99853.28;;;22.47;91.83
19112;BME280;9688;51.906;8.376;2023-07-29T08:19:25;99847.78;;;22.57;91.21
19112;BME280;9688;51.906;8.376;2023-07-29T08:22:10;99852.09;;;22.68;90.41
19112;BME280;9688;51.906;8.376;2023-07-29T08:24:56;99860.38;;;22.75;89.66
19112;BME280;9688;51.906;8.376;2023-07-29T08:27:42;99860.44;;;22.83;89.20
19112;BME280;9688;51.906;8.376;2023-07-29T08:30:28;99863.38;;;22.89;88.09
19112;BME280;9688;51.906;8.376;2023-07-29T08:33:14;99863.72;;;22.94;86.78
19112;BME280;9688;51.906;8.376;2023-07-29T08:36:02;99853.22;;;23.01;85.52
19112;BME280;9688;51.906;8.376;2023-07-29T08:38:48;99862.53;;;23.07;84.84
19112;BME280;9688;51.906;8.376;2023-07-29T08:41:38;99856.94;;;23.08;84.67
19112;BME280;9688;51.906;8.376;2023-07-29T08:44:30;99852.94;;;23.12;84.30
19112;BME280;9688;51.906;8.376;2023-07-29T08:47:18;99854.69;;;23.22;84.01
19112;BME280;9688;51.906;8.376;2023-07-29T08:50:06;99852.91;;;23.38;83.00
19112;BME280;9688;51.906;8.376;2023-07-29T08:52:54;99838.84;;;23.53;81.49
19112;BME280;9688;51.906;8.376;2023-07-29T08:55:40;99838.97;;;23.86;79.83
19112;BME280;9688;51.906;8.376;2023-07-29T08:58:26;99857.25;;;24.08;78.55
19112;BME280;9688;51.906;8.376;2023-07-29T09:01:12;99847.84;;;24.20;77.30
19112;BME280;9688;51.906;8.376;2023-07-29T09:03:59;99846.50;;;24.24;76.30
19112;BME280;9688;51.906;8.376;2023-07-29T09:06:45;99847.38;;;24.25;75.64
19112;BME280;9688;51.906;8.376;2023-07-29T09:09:36;99842.97;;;24.32;74.68
19112;BME280;9688;51.906;8.376;2023-07-29T09:12:24;99851.97;;;24.49;74.08
19112;BME280;9688;51.906;8.376;2023-07-29T09:15:10;99857.38;;;24.65;73.45
19112;BME280;9688;51.906;8.376;2023-07-29T09:17:57;99858.91;;;24.68;73.45
19112;BME280;9688;51.906;8.376;2023-07-29T09:20:43;99865.69;;;24.72;72.79
19112;BME280;9688;51.906;8.376;2023-07-29T09:23:38;99866.84;;;24.86;72.03
19112;BME280;9688;51.906;8.376;2023-07-29T09:26:27;99863.81;;;24.89;71.42
19112;BME280;9688;51.906;8.376;2023-07-29T09:29:13;99867.84;;;24.93;71.16
19112;BME280;9688;51.906;8.376;2023-07-29T09:32:17;99857.72;;;24.95;71.07
19112;BME280;9688;51.906;8.376;2023-07-29T09:35:09;99875.97;;;24.93;70.87
19112;BME280;9688;51.906;8.376;2023-07-29T09:37:56;99865.13;;;24.93;71.18
19112;BME280;9688;51.906;8.376;2023-07-29T09:40:42;99878.16;;;24.98;71.34
19112;BME280;9688;51.906;8.376;2023-07-29T09:43:34;99863.78;;;25.05;70.76
19112;BME280;9688;51.906;8.376;2023-07-29T09:46:23;99859.72;;;25.09;70.25
19112;BME280;9688;51.906;8.376;2023-07-29T09:49:10;99865.97;;;25.10;69.58
19112;BME280;9688;51.906;8.376;2023-07-29T09:51:56;99858.53;;;25.04;69.83
19112;BME280;9688;51.906;8.376;2023-07-29T09:54:43;99860.22;;;24.97;69.18
19112;BME280;9688;51.906;8.376;2023-07-29T09:57:30;99865.63;;;24.97;69.20
19112;BME280;9688;51.906;8.376;2023-07-29T10:00:18;99849.75;;;24.93;69.42
19112;BME280;9688;51.906;8.376;2023-07-29T10:03:06;99856.00;;;24.94;69.65
19112;BME280;9688;51.906;8.376;2023-07-29T10:05:52;99862.09;;;24.88;69.37
19112;BME280;9688;51.906;8.376;2023-07-29T10:08:39;99859.59;;;24.70;69.81
19112;BME280;9688;51.906;8.376;2023-07-29T10:11:26;99859.06;;;24.75;69.61
19112;BME280;9688;51.906;8.376;2023-07-29T10:14:12;99861.59;;;24.92;69.11
19112;BME280;9688;51.906;8.376;2023-07-29T10:17:00;99855.50;;;24.99;69.18
19112;BME280;9688;51.906;8.376;2023-07-29T10:19:46;99854.81;;;25.21;68.48
19112;BME280;9688;51.906;8.376;2023-07-29T10:22:38;99852.09;;;25.29;67.83
19112;BME280;9688;51.906;8.376;2023-07-29T10:25:31;99860.03;;;25.39;67.22
19112;BME280;9688;51.906;8.376;2023-07-29T10:28:25;99857.28;;;25.47;66.49
19112;BME280;9688;51.906;8.376;2023-07-29T10:31:13;99854.91;;;25.52;65.87
19112;BME280;9688;51.906;8.376;2023-07-29T10:34:04;99847.97;;;25.50;65.81
19112;BME280;9688;51.906;8.376;2023-07-29T10:36:51;99854.22;;;25.50;65.50
19112;BME280;9688;51.906;8.376;2023-07-29T10:39:39;99858.97;;;25.48;65.61
19112;BME280;9688;51.906;8.376;2023-07-29T10:42:25;99848.97;;;25.49;65.50
19112;BME280;9688;51.906;8.376;2023-07-29T10:45:18;99853.03;;;25.53;65.26
19112;BME280;9688;51.906;8.376;2023-07-29T10:48:10;99857.63;;;25.52;64.96
19112;BME280;9688;51.906;8.376;2023-07-29T10:51:29;99856.94;;;25.50;65.04
19112;BME280;9688;51.906;8.376;2023-07-29T10:54:17;99856.28;;;25.40;65.39
19112;BME280;9688;51.906;8.376;2023-07-29T10:57:03;99852.88;;;25.46;65.11
19112;BME280;9688;51.906;8.376;2023-07-29T10:59:54;99858.97;;;25.48;64.88
19112;BME280;9688;51.906;8.376;2023-07-29T11:02:40;99853.69;;;25.55;65.03
19112;BME280;9688;51.906;8.376;2023-07-29T11:05:26;99850.78;;;25.65;65.22
19112;BME280;9688;51.906;8.376;2023-07-29T11:08:22;99851.06;;;25.78;65.05
19112;BME280;9688;51.906;8.376;2023-07-29T11:11:12;99851.03;;;25.94;64.17
19112;BME280;9688;51.906;8.376;2023-07-29T11:13:59;99848.47;;;25.93;63.74
19112;BME280;9688;51.906;8.376;2023-07-29T11:16:45;99847.13;;;25.97;64.06
19112;BME280;9688;51.906;8.376;2023-07-29T11:19:33;99850.78;;;26.04;63.85
19112;BME280;9688;51.906;8.376;2023-07-29T11:22:28;99845.69;;;26.09;63.51
19112;BME280;9688;51.906;8.376;2023-07-29T11:25:17;99839.47;;;26.00;63.88
19112;BME280;9688;51.906;8.376;2023-07-29T11:28:03;99839.59;;;26.07;63.48
19112;BME280;9688;51.906;8.376;2023-07-29T11:30:50;99835.16;;;26.14;63.20
19112;BME280;9688;51.906;8.376;2023-07-29T11:33:38;99829.53;;;26.16;62.90
19112;BME280;9688;51.906;8.376;2023-07-29T11:36:24;99836.47;;;26.18;62.99
19112;BME280;9688;51.906;8.376;2023-07-29T11:39:11;99834.06;;;26.23;63.39
19112;BME280;9688;51.906;8.376;2023-07-29T11:41:58;99837.50;;;26.17;63.77
19112;BME280;9688;51.906;8.376;2023-07-29T11:44:45;99833.72;;;26.26;63.47
19112;BME280;9688;51.906;8.376;2023-07-29T11:47:32;99826.91;;;26.31;63.30
19112;BME280;9688;51.906;8.376;2023-07-29T11:50:21;99834.91;;;26.24;63.93
19112;BME280;9688;51.906;8.376;2023-07-29T11:53:07;99832.81;;;26.34;63.53
19112;BME280;9688;51.906;8.376;2023-07-29T11:55:53;99830.00;;;26.28;63.53
19112;BME280;9688;51.906;8.376;2023-07-29T11:58:40;99825.56;;;26.26;63.65
19112;BME280;9688;51.906;8.376;2023-07-29T12:01:28;99830.94;;;26.35;63.13
19112;BME280;9688;51.906;8.376;2023-07-29T12:04:14;99824.47;;;26.44;62.62
19112;BME280;9688;51.906;8.376;2023-07-29T12:07:00;99828.75;;;26.61;62.56
19112;BME280;9688;51.906;8.376;2023-07-29T12:09:49;99830.41;;;26.62;62.56
19112;BME280;9688;51.906;8.376;2023-07-29T12:12:40;99832.47;;;26.60;62.22
19112;BME280;9688;51.906;8.376;2023-07-29T12:15:31;99849.75;;;26.59;62.07
19112;BME280;9688;51.906;8.376;2023-07-29T12:18:17;99842.88;;;26.48;62.68
19112;BME280;9688;51.906;8.376;2023-07-29T12:21:03;99842.66;;;26.58;62.73
19112;BME280;9688;51.906;8.376;2023-07-29T12:23:50;99834.13;;;26.84;61.91
19112;BME280;9688;51.906;8.376;2023-07-29T12:26:38;99833.59;;;27.04;61.54
19112;BME280;9688;51.906;8.376;2023-07-29T12:29:25;99832.66;;;26.97;61.67
19112;BME280;9688;51.906;8.376;2023-07-29T12:32:13;99831.25;;;26.86;61.84
19112;BME280;9688;51.906;8.376;2023-07-29T12:35:00;99845.03;;;26.76;62.28
19112;BME280;9688;51.906;8.376;2023-07-29T12:37:46;99844.38;;;26.74;62.65
19112;BME280;9688;51.906;8.376;2023-07-29T12:40:37;99833.97;;;26.63;62.41
19112;BME280;9688;51.906;8.376;2023-07-29T12:43:25;99835.00;;;26.39;62.91
19112;BME280;9688;51.906;8.376;2023-07-29T12:46:10;99841.25;;;26.16;63.75
19112;BME280;9688;51.906;8.376;2023-07-29T12:48:57;99835.31;;;25.90;64.22
19112;BME280;9688;51.906;8.376;2023-07-29T12:51:45;99839.69;;;25.82;64.89
19112;BME280;9688;51.906;8.376;2023-07-29T12:54:30;99834.59;;;25.96;64.57
19112;BME280;9688;51.906;8.376;2023-07-29T12:57:16;99828.22;;;25.89;64.78
19112;BME280;9688;51.906;8.376;2023-07-29T13:00:03;99821.09;;;25.88;65.26
19112;BME280;9688;51.906;8.376;2023-07-29T13:02:49;99822.88;;;26.03;65.10
19112;BME280;9688;51.906;8.376;2023-07-29T13:05:36;99810.25;;;26.19;64.67
19112;BME280;9688;51.906;8.376;2023-07-29T13:08:22;99820.47;;;26.32;64.51
19112;BME280;9688;51.906;8.376;2023-07-29T13:11:09;99814.59;;;26.51;64.73
19112;BME280;9688;51.906;8.376;2023-07-29T13:13:55;99822.75;;;26.66;64.21
19112;BME280;9688;51.906;8.376;2023-07-29T13:16:41;99821.41;;;26.85;63.75
19112;BME280;9688;51.906;8.376;2023-07-29T13:19:27;99821.53;;;26.91;63.82
19112;BME280;9688;51.906;8.376;2023-07-29T13:22:14;99822.34;;;26.92;63.61
19112;BME280;9688;51.906;8.376;2023-07-29T13:25:01;99817.84;;;26.84;63.84
19112;BME280;9688;51.906;8.376;2023-07-29T13:27:47;99811.69;;;26.90;63.03
19112;BME280;9688;51.906;8.376;2023-07-29T13:30:33;99816.84;;;27.00;62.21
19112;BME280;9688;51.906;8.376;2023-07-29T13:33:22;99820.97;;;27.11;61.37
19112;BME280;9688;51.906;8.376;2023-07-29T13:36:09;99820.97;;;27.11;60.94
19112;BME280;9688;51.906;8.376;2023-07-29T13:38:56;99811.75;;;27.20;60.33
19112;BME280;9688;51.906;8.376;2023-07-29T13:41:43;99827.09;;;27.43;59.53
19112;BME280;9688;51.906;8.376;2023-07-29T13:44:29;99823.63;;;27.64;58.90
19112;BME280;9688;51.906;8.376;2023-07-29T13:47:15;99832.41;;;27.66;57.81
19112;BME280;9688;51.906;8.376;2023-07-29T13:50:01;99826.25;;;27.42;58.67
19112;BME280;9688;51.906;8.376;2023-07-29T13:52:48;99831.22;;;27.39;58.71
19112;BME280;9688;51.906;8.376;2023-07-29T13:55:36;99822.41;;;27.36;58.24
19112;BME280;9688;51.906;8.376;2023-07-29T13:58:22;99821.66;;;27.28;58.24
19112;BME280;9688;51.906;8.376;2023-07-29T14:01:10;99825.75;;;27.09;59.05
19112;BME280;9688;51.906;8.376;2023-07-29T14:03:56;99833.13;;;27.00;59.55
19112;BME280;9688;51.906;8.376;2023-07-29T14:06:41;99837.97;;;26.90;60.13
19112;BME280;9688;51.906;8.376;2023-07-29T14:09:27;99836.09;;;26.90;60.61
19112;BME280;9688;51.906;8.376;2023-07-29T14:12:15;99836.91;;;26.76;61.28
19112;BME280;9688;51.906;8.376;2023-07-29T14:15:00;99833.25;;;26.69;61.33
19112;BME280;9688;51.906;8.376;2023-07-29T14:17:47;99842.78;;;26.65;61.77
19112;BME280;9688;51.906;8.376;2023-07-29T14:20:33;99831.78;;;26.81;61.32
19112;BME280;9688;51.906;8.376;2023-07-29T14:23:18;99837.88;;;26.83;61.25
19112;BME280;9688;51.906;8.376;2023-07-29T14:26:04;99841.72;;;26.66;62.05
19112;BME280;9688;51.906;8.376;2023-07-29T14:28:55;99841.78;;;26.35;62.72
19112;BME280;9688;51.906;8.376;2023-07-29T14:31:41;99847.69;;;26.15;63.59
19112;BME280;9688;51.906;8.376;2023-07-29T14:34:27;99859.41;;;26.08;63.86
19112;BME280;9688;51.906;8.376;2023-07-29T14:37:13;99855.22;;;26.05;63.93
19112;BME280;9688;51.906;8.376;2023-07-29T14:39:59;99855.06;;;25.98;64.10
19112;BME280;9688;51.906;8.376;2023-07-29T14:42:44;99865.81;;;25.84;64.53
19112;BME280;9688;51.906;8.376;2023-07-29T14:45:31;99857.84;;;25.74;64.79
19112;BME280;9688;51.906;8.376;2023-07-29T14:48:17;99869.38;;;25.68;65.21
19112;BME280;9688;51.906;8.376;2023-07-29T14:51:03;99871.28;;;25.59;65.55